F/V Lisa Melinda — WYC3746 — position and weather

sailwx.info

Track history (hours):
 
Tides and Currents Weather Stations Pressure Air Temp Water Temp Dewpoint Dewpoint Depression Visibility Wind Speed Wind Dir Waves Ship Positions

F/V Lisa Melinda

Owner: LISA MELINDA FISHERIES INC, NEWPORT, OR. More information available from US FCC via Universal Licensing System and Coast Guard Vessel Documentation Center.

Last reported at 2018-Jun-22 22:45 UTC. Time now 2018-Jun-25 08:21 UTC.
Position N 43°39' W 124°37'.

; draft 3.6 m.

Type: Fishing. MMSI: 366738920.

Date/timePositionNaut miles runAvg speedWind from/ knotsBaromVisibWave heightAir tempDewpointWater temp
2018-Jun-22 22:45N 43°39' W 124°37'1 1.6
2018-Jun-22 22:18N 43°38' W 124°37'1 3.0
2018-Jun-22 21:59N 43°37' W 124°36'4 1.0
2018-Jun-22 18:10N 43°34' W 124°36'5 1.6
2018-Jun-22 15:17N 43°38' W 124°35'2 1.7
2018-Jun-22 14:18N 43°36' W 124°36'4 6.1
2018-Jun-22 13:40N 43°33' W 124°37'2 0.9
2018-Jun-22 10:52N 43°30' W 124°38'1 1.8
2018-Jun-22 10:09N 43°30' W 124°40'1 1.8
2018-Jun-22 09:33N 43°29' W 124°41'0 2.3
2018-Jun-22 09:29N 43°29' W 124°40'  
2018-Jun-19 21:07N 43°55' W 124°27'1 3.0
2018-Jun-19 20:55N 43°55' W 124°28'3 1.1
2018-Jun-19 18:12N 43°57' W 124°24'0 0.4
2018-Jun-19 17:45N 43°57' W 124°24'1 3.0
2018-Jun-19 17:28N 43°56' W 124°24'1 3.0
2018-Jun-19 17:00N 43°55' W 124°25'0 0.3
2018-Jun-19 16:07N 43°55' W 124°24'0 3.2
2018-Jun-19 16:00N 43°55' W 124°24'2 3.1
2018-Jun-19 15:16N 43°58' W 124°23'1 3.8
2018-Jun-19 15:00N 43°58' W 124°23'2 2.8
2018-Jun-19 14:22N 43°60' W 124°21'3 9.4
2018-Jun-19 14:00N 44°02' W 124°24'4 8.0
2018-Jun-19 13:30N 44°05' W 124°28'1 1.4
2018-Jun-19 13:00N 44°05' W 124°28'3 2.8
2018-Jun-19 12:01N 44°03' W 124°25'0 0.0
2018-Jun-19 12:00N 44°03' W 124°25'0 0.4
2018-Jun-19 11:27N 44°03' W 124°25'0 0.2
2018-Jun-19 11:00N 44°03' W 124°25'0 0.2
2018-Jun-19 10:29N 44°03' W 124°25'0 0.6
2018-Jun-19 10:00N 44°03' W 124°26'1 2.2
2018-Jun-19 09:30N 44°02' W 124°25'1 2.0
2018-Jun-19 09:00N 44°01' W 124°24'1 2.1
2018-Jun-19 08:30N 44°00' W 124°23'1 2.4
2018-Jun-19 08:00N 43°59' W 124°23'1 2.4
2018-Jun-19 07:30N 43°58' W 124°22'1 2.4
2018-Jun-19 06:59N 43°57' W 124°22'1 2.4
2018-Jun-19 06:30N 43°56' W 124°22'1 2.3
2018-Jun-19 06:00N 43°54' W 124°22'1 2.3
2018-Jun-19 05:30N 43°53' W 124°22'1 2.3
2018-Jun-19 05:00N 43°52' W 124°22'2 2.3
2018-Jun-19 03:58N 43°54' W 124°24'1 2.4
2018-Jun-19 03:30N 43°55' W 124°24'1 2.8
2018-Jun-19 03:00N 43°54' W 124°23'1 2.9
2018-Jun-19 02:30N 43°52' W 124°23'1 2.2
2018-Jun-19 01:58N 43°51' W 124°22'1 3.2
2018-Jun-19 01:30N 43°53' W 124°23'1 2.0
2018-Jun-19 00:55N 43°54' W 124°22'2 3.1
2018-Jun-19 00:21N 43°55' W 124°20'1 3.1
2018-Jun-19 00:00N 43°56' W 124°20'2 2.5
2018-Jun-18 23:09N 43°58' W 124°18'0 2.8
2018-Jun-18 23:00N 43°57' W 124°18'2 3.0
2018-Jun-18 22:28N 43°56' W 124°19'1 3.0
2018-Jun-18 22:00N 43°54' W 124°18'1 0.4
2018-Jun-18 20:30N 43°55' W 124°19'2 3.2
2018-Jun-18 20:00N 43°56' W 124°19'1 1.1
2018-Jun-18 19:25N 43°56' W 124°19'4 1.6
2018-Jun-18 16:59N 43°52' W 124°21'1 2.9
2018-Jun-18 16:31N 43°51' W 124°20'11 3.0
2018-Jun-18 12:47N 43°44' W 124°32'2 5.5
2018-Jun-18 12:23N 43°45' W 124°34'2 2.8
2018-Jun-18 11:38N 43°48' W 124°33'0 3.3
2018-Jun-18 11:30N 43°48' W 124°34'1 0.8
2018-Jun-18 10:53N 43°48' W 124°33'1 3.6
2018-Jun-18 10:30N 43°48' W 124°35'2 3.3
2018-Jun-18 10:00N 43°46' W 124°37'1 0.8
2018-Jun-18 09:19N 43°47' W 124°37'0 0.9
2018-Jun-18 08:54N 43°47' W 124°37'0 0.8
2018-Jun-18 08:30N 43°48' W 124°37'1 0.8
2018-Jun-18 07:21N 43°49' W 124°36'0 0.9
2018-Jun-18 06:59N 43°49' W 124°36'1 2.2
2018-Jun-18 06:28N 43°50' W 124°37'1 1.9
2018-Jun-18 06:00N 43°50' W 124°36'1 2.2
2018-Jun-18 05:30N 43°49' W 124°35'1 2.5
2018-Jun-18 04:59N 43°48' W 124°33'1 2.6
2018-Jun-18 04:28N 43°47' W 124°32'8 2.4
2018-Jun-18 01:01N 43°40' W 124°26'0 3.1
2018-Jun-18 00:58N 43°40' W 124°26'2 3.1
2018-Jun-18 00:29N 43°42' W 124°26'2 3.1
2018-Jun-17 23:59N 43°43' W 124°25'2 3.2
2018-Jun-17 23:30N 43°45' W 124°25'2 2.7
2018-Jun-17 22:44N 43°43' W 124°26'2 2.7
2018-Jun-17 21:48N 43°43' W 124°22'2 2.9
2018-Jun-17 21:13N 43°43' W 124°20'1 3.0
2018-Jun-17 20:57N 43°42' W 124°20'2 2.8
2018-Jun-17 20:23N 43°41' W 124°20'1 3.0
2018-Jun-17 19:57N 43°40' W 124°20'1 1.2
2018-Jun-17 19:30N 43°39' W 124°20'2 0.9
2018-Jun-17 17:39N 43°38' W 124°20'0 3.0
2018-Jun-17 17:30N 43°37' W 124°19'2 3.3
2018-Jun-17 16:58N 43°35' W 124°19'81 1.6
2018-Jun-15 13:57N 44°56' W 124°27'11 8.1
2018-Jun-15 12:35N 45°07' W 124°29'2 8.5
2018-Jun-15 12:24N 45°09' W 124°30'5 7.9
2018-Jun-15 11:48N 45°13' W 124°32'2 7.4
2018-Jun-15 11:31N 45°15' W 124°33'4 7.4
2018-Jun-15 11:00N 45°19' W 124°34'4 7.1
2018-Jun-15 10:31N 45°22' W 124°35'6 7.0
2018-Jun-15 09:37N 45°29' W 124°37'1 7.4
2018-Jun-15 09:31N 45°29' W 124°37'4 7.6
2018-Jun-15 09:01N 45°33' W 124°38'4 7.7
2018-Jun-15 08:30N 45°37' W 124°39'4 7.7
2018-Jun-15 08:00N 45°41' W 124°40'5 8.0
2018-Jun-15 07:19N 45°46' W 124°41'3 8.2
2018-Jun-15 06:59N 45°49' W 124°42'4 8.4
2018-Jun-15 06:29N 45°53' W 124°43'4 8.5
2018-Jun-15 06:00N 45°57' W 124°44'4 8.5
2018-Jun-15 05:31N 46°01' W 124°45'4 8.7
2018-Jun-15 05:00N 46°05' W 124°46'4 8.7
2018-Jun-15 04:30N 46°10' W 124°47'4 9.0
2018-Jun-15 04:00N 46°14' W 124°49'9 8.9
2018-Jun-15 03:03N 46°22' W 124°51'0 8.7
2018-Jun-15 03:00N 46°23' W 124°51'4 8.7
2018-Jun-15 02:30N 46°27' W 124°52'4 8.6
2018-Jun-15 02:01N 46°31' W 124°53'6 8.8
2018-Jun-15 01:21N 46°37' W 124°54'3 9.0
2018-Jun-15 01:00N 46°40' W 124°55'5 9.1
2018-Jun-15 00:30N 46°45' W 124°56'5 9.0
2018-Jun-15 00:00N 46°49' W 124°57'2 3.8
2018-Jun-14 23:31N 46°51' W 124°59'0 0.5
2018-Jun-14 23:01N 46°51' W 124°59'1 2.5
2018-Jun-14 22:30N 46°52' W 125°00'1 2.5
2018-Jun-14 22:00N 46°53' W 125°01'1 1.7
2018-Jun-14 21:30N 46°54' W 125°01'1 1.7
2018-Jun-14 21:00N 46°53' W 124°60'1 1.8
2018-Jun-14 20:30N 46°53' W 124°59'1 1.7
2018-Jun-14 20:00N 46°53' W 124°58'1 1.7
2018-Jun-14 19:30N 46°52' W 124°57'1 1.5
2018-Jun-14 19:00N 46°53' W 124°56'1 2.7
2018-Jun-14 18:31N 46°54' W 124°56'0 0.8
2018-Jun-14 18:00N 46°54' W 124°55'2 2.9
2018-Jun-14 17:26N 46°52' W 124°56'2 3.6
2018-Jun-14 17:00N 46°52' W 124°59'2 4.8
2018-Jun-14 16:31N 46°53' W 124°55'0 0.3
2018-Jun-14 16:01N 46°53' W 124°55'1 2.2
2018-Jun-14 15:31N 46°52' W 124°57'3 5.9
2018-Jun-14 15:00N 46°55' W 124°57'2 3.3
2018-Jun-14 14:23N 46°56' W 124°60'2 5.1
2018-Jun-14 14:00N 46°58' W 124°60'1 2.4
2018-Jun-14 13:30N 46°59' W 125°00'34 1.1
2018-Jun-13 05:01N 47°33' W 125°04'0 0.4
2018-Jun-13 04:58N 47°33' W 125°04'0 0.5
2018-Jun-13 04:15N 47°33' W 125°04'0 0.3
2018-Jun-13 03:47N 47°33' W 125°04'0 0.4
2018-Jun-13 03:27N 47°33' W 125°04'0 0.4
2018-Jun-13 03:00N 47°33' W 125°04'0 0.3
2018-Jun-13 01:58N 47°32' W 125°04'0 0.3
2018-Jun-13 01:26N 47°33' W 125°03'  
Track history (hours):
 
Tides and Currents Weather Stations Pressure Air Temp Water Temp Dewpoint Dewpoint Depression Visibility Wind Speed Wind Dir Waves Ship Positions

F/V Lisa Melinda

Owner: LISA MELINDA FISHERIES INC, NEWPORT, OR. More information available from US FCC via Universal Licensing System and Coast Guard Vessel Documentation Center.

Last reported at 2018-Jun-22 22:45 UTC. Time now 2018-Jun-25 08:21 UTC.
Position N 43°39' W 124°37'.

; draft 3.6 m.

Type: Fishing. MMSI: 366738920.

Date/timePositionNaut miles runAvg speedWind from/ knotsBaromVisibWave heightAir tempDewpointWater temp
2018-Jun-22 22:45N 43°39' W 124°37'1 1.6
2018-Jun-22 22:18N 43°38' W 124°37'1 3.0
2018-Jun-22 21:59N 43°37' W 124°36'4 1.0
2018-Jun-22 18:10N 43°34' W 124°36'5 1.6
2018-Jun-22 15:17N 43°38' W 124°35'2 1.7
2018-Jun-22 14:18N 43°36' W 124°36'4 6.1
2018-Jun-22 13:40N 43°33' W 124°37'2 0.9
2018-Jun-22 10:52N 43°30' W 124°38'1 1.8
2018-Jun-22 10:09N 43°30' W 124°40'1 1.8
2018-Jun-22 09:33N 43°29' W 124°41'0 2.3
2018-Jun-22 09:29N 43°29' W 124°40'  
2018-Jun-19 21:07N 43°55' W 124°27'1 3.0
2018-Jun-19 20:55N 43°55' W 124°28'3 1.1
2018-Jun-19 18:12N 43°57' W 124°24'0 0.4
2018-Jun-19 17:45N 43°57' W 124°24'1 3.0
2018-Jun-19 17:28N 43°56' W 124°24'1 3.0
2018-Jun-19 17:00N 43°55' W 124°25'0 0.3
2018-Jun-19 16:07N 43°55' W 124°24'0 3.2
2018-Jun-19 16:00N 43°55' W 124°24'2 3.1
2018-Jun-19 15:16N 43°58' W 124°23'1 3.8
2018-Jun-19 15:00N 43°58' W 124°23'2 2.8
2018-Jun-19 14:22N 43°60' W 124°21'3 9.4
2018-Jun-19 14:00N 44°02' W 124°24'4 8.0
2018-Jun-19 13:30N 44°05' W 124°28'1 1.4
2018-Jun-19 13:00N 44°05' W 124°28'3 2.8
2018-Jun-19 12:01N 44°03' W 124°25'0 0.0
2018-Jun-19 12:00N 44°03' W 124°25'0 0.4
2018-Jun-19 11:27N 44°03' W 124°25'0 0.2
2018-Jun-19 11:00N 44°03' W 124°25'0 0.2
2018-Jun-19 10:29N 44°03' W 124°25'0 0.6
2018-Jun-19 10:00N 44°03' W 124°26'1 2.2
2018-Jun-19 09:30N 44°02' W 124°25'1 2.0
2018-Jun-19 09:00N 44°01' W 124°24'1 2.1
2018-Jun-19 08:30N 44°00' W 124°23'1 2.4
2018-Jun-19 08:00N 43°59' W 124°23'1 2.4
2018-Jun-19 07:30N 43°58' W 124°22'1 2.4
2018-Jun-19 06:59N 43°57' W 124°22'1 2.4
2018-Jun-19 06:30N 43°56' W 124°22'1 2.3
2018-Jun-19 06:00N 43°54' W 124°22'1 2.3
2018-Jun-19 05:30N 43°53' W 124°22'1 2.3
2018-Jun-19 05:00N 43°52' W 124°22'2 2.3
2018-Jun-19 03:58N 43°54' W 124°24'1 2.4
2018-Jun-19 03:30N 43°55' W 124°24'1 2.8
2018-Jun-19 03:00N 43°54' W 124°23'1 2.9
2018-Jun-19 02:30N 43°52' W 124°23'1 2.2
2018-Jun-19 01:58N 43°51' W 124°22'1 3.2
2018-Jun-19 01:30N 43°53' W 124°23'1 2.0
2018-Jun-19 00:55N 43°54' W 124°22'2 3.1
2018-Jun-19 00:21N 43°55' W 124°20'1 3.1
2018-Jun-19 00:00N 43°56' W 124°20'2 2.5
2018-Jun-18 23:09N 43°58' W 124°18'0 2.8
2018-Jun-18 23:00N 43°57' W 124°18'2 3.0
2018-Jun-18 22:28N 43°56' W 124°19'1 3.0
2018-Jun-18 22:00N 43°54' W 124°18'1 0.4
2018-Jun-18 20:30N 43°55' W 124°19'2 3.2
2018-Jun-18 20:00N 43°56' W 124°19'1 1.1
2018-Jun-18 19:25N 43°56' W 124°19'4 1.6
2018-Jun-18 16:59N 43°52' W 124°21'1 2.9
2018-Jun-18 16:31N 43°51' W 124°20'11 3.0
2018-Jun-18 12:47N 43°44' W 124°32'2 5.5
2018-Jun-18 12:23N 43°45' W 124°34'2 2.8
2018-Jun-18 11:38N 43°48' W 124°33'0 3.3
2018-Jun-18 11:30N 43°48' W 124°34'1 0.8
2018-Jun-18 10:53N 43°48' W 124°33'1 3.6
2018-Jun-18 10:30N 43°48' W 124°35'2 3.3
2018-Jun-18 10:00N 43°46' W 124°37'1 0.8
2018-Jun-18 09:19N 43°47' W 124°37'0 0.9
2018-Jun-18 08:54N 43°47' W 124°37'0 0.8
2018-Jun-18 08:30N 43°48' W 124°37'1 0.8
2018-Jun-18 07:21N 43°49' W 124°36'0 0.9
2018-Jun-18 06:59N 43°49' W 124°36'1 2.2
2018-Jun-18 06:28N 43°50' W 124°37'1 1.9
2018-Jun-18 06:00N 43°50' W 124°36'1 2.2
2018-Jun-18 05:30N 43°49' W 124°35'1 2.5
2018-Jun-18 04:59N 43°48' W 124°33'1 2.6
2018-Jun-18 04:28N 43°47' W 124°32'8 2.4
2018-Jun-18 01:01N 43°40' W 124°26'0 3.1
2018-Jun-18 00:58N 43°40' W 124°26'2 3.1
2018-Jun-18 00:29N 43°42' W 124°26'2 3.1
2018-Jun-17 23:59N 43°43' W 124°25'2 3.2
2018-Jun-17 23:30N 43°45' W 124°25'2 2.7
2018-Jun-17 22:44N 43°43' W 124°26'2 2.7
2018-Jun-17 21:48N 43°43' W 124°22'2 2.9
2018-Jun-17 21:13N 43°43' W 124°20'1 3.0
2018-Jun-17 20:57N 43°42' W 124°20'2 2.8
2018-Jun-17 20:23N 43°41' W 124°20'1 3.0
2018-Jun-17 19:57N 43°40' W 124°20'1 1.2
2018-Jun-17 19:30N 43°39' W 124°20'2 0.9
2018-Jun-17 17:39N 43°38' W 124°20'0 3.0
2018-Jun-17 17:30N 43°37' W 124°19'2 3.3
2018-Jun-17 16:58N 43°35' W 124°19'81 1.6
2018-Jun-15 13:57N 44°56' W 124°27'11 8.1
2018-Jun-15 12:35N 45°07' W 124°29'2 8.5
2018-Jun-15 12:24N 45°09' W 124°30'5 7.9
2018-Jun-15 11:48N 45°13' W 124°32'2 7.4
2018-Jun-15 11:31N 45°15' W 124°33'4 7.4
2018-Jun-15 11:00N 45°19' W 124°34'4 7.1
2018-Jun-15 10:31N 45°22' W 124°35'6 7.0
2018-Jun-15 09:37N 45°29' W 124°37'1 7.4
2018-Jun-15 09:31N 45°29' W 124°37'4 7.6
2018-Jun-15 09:01N 45°33' W 124°38'4 7.7
2018-Jun-15 08:30N 45°37' W 124°39'4 7.7
2018-Jun-15 08:00N 45°41' W 124°40'5 8.0
2018-Jun-15 07:19N 45°46' W 124°41'3 8.2
2018-Jun-15 06:59N 45°49' W 124°42'4 8.4
2018-Jun-15 06:29N 45°53' W 124°43'4 8.5
2018-Jun-15 06:00N 45°57' W 124°44'4 8.5
2018-Jun-15 05:31N 46°01' W 124°45'4 8.7
2018-Jun-15 05:00N 46°05' W 124°46'4 8.7
2018-Jun-15 04:30N 46°10' W 124°47'4 9.0
2018-Jun-15 04:00N 46°14' W 124°49'9 8.9
2018-Jun-15 03:03N 46°22' W 124°51'0 8.7
2018-Jun-15 03:00N 46°23' W 124°51'4 8.7
2018-Jun-15 02:30N 46°27' W 124°52'4 8.6
2018-Jun-15 02:01N 46°31' W 124°53'6 8.8
2018-Jun-15 01:21N 46°37' W 124°54'3 9.0
2018-Jun-15 01:00N 46°40' W 124°55'5 9.1
2018-Jun-15 00:30N 46°45' W 124°56'5 9.0
2018-Jun-15 00:00N 46°49' W 124°57'2 3.8
2018-Jun-14 23:31N 46°51' W 124°59'0 0.5
2018-Jun-14 23:01N 46°51' W 124°59'1 2.5
2018-Jun-14 22:30N 46°52' W 125°00'1 2.5
2018-Jun-14 22:00N 46°53' W 125°01'1 1.7
2018-Jun-14 21:30N 46°54' W 125°01'1 1.7
2018-Jun-14 21:00N 46°53' W 124°60'1 1.8
2018-Jun-14 20:30N 46°53' W 124°59'1 1.7
2018-Jun-14 20:00N 46°53' W 124°58'1 1.7
2018-Jun-14 19:30N 46°52' W 124°57'1 1.5
2018-Jun-14 19:00N 46°53' W 124°56'1 2.7
2018-Jun-14 18:31N 46°54' W 124°56'0 0.8
2018-Jun-14 18:00N 46°54' W 124°55'2 2.9
2018-Jun-14 17:26N 46°52' W 124°56'2 3.6
2018-Jun-14 17:00N 46°52' W 124°59'2 4.8
2018-Jun-14 16:31N 46°53' W 124°55'0 0.3
2018-Jun-14 16:01N 46°53' W 124°55'1 2.2
2018-Jun-14 15:31N 46°52' W 124°57'3 5.9
2018-Jun-14 15:00N 46°55' W 124°57'2 3.3
2018-Jun-14 14:23N 46°56' W 124°60'2 5.1
2018-Jun-14 14:00N 46°58' W 124°60'1 2.4
2018-Jun-14 13:30N 46°59' W 125°00'34 1.1
2018-Jun-13 05:01N 47°33' W 125°04'0 0.4
2018-Jun-13 04:58N 47°33' W 125°04'0 0.5
2018-Jun-13 04:15N 47°33' W 125°04'0 0.3
2018-Jun-13 03:47N 47°33' W 125°04'0 0.4
2018-Jun-13 03:27N 47°33' W 125°04'0 0.4
2018-Jun-13 03:00N 47°33' W 125°04'0 0.3
2018-Jun-13 01:58N 47°32' W 125°04'0 0.3
2018-Jun-13 01:26N 47°33' W 125°03'  

Dump ship's entire track history